Singapore, Singapore

9:33 PM SGT on October 24, 2014 (GMT +0800)
Changi | Change Station
CLOSE
Current Station
Airport
Location: Singapore,
Elevation: 52 ft
Nearby Weather Stations

Elev 52 ft 1.37 °N, 103.98 °E | Updated 3 minutes ago

Mostly Cloudy
Mostly Cloudy
82 °F
Feels Like 90 °F
N
6
Wind Variable Wind from East

Today
High -- | Low -- °F
--% Chance of Precip.
Yesterday
High -- | Low -- °F
Precip. -- in
6:46 AM 6:50 PM
New Moon, 0% visible
Pressure 29.86 in
Visibility 6.2 miles
Clouds Few 2000 ft
Mostly Cloudy 30000 ft
Heat Index 90 °F
Dew Point 75 °F
Humidity 79%
Rainfall 0.00 in
Snow Depth Not available.
UV 0 out of 12
Pollen Not available.
Air Quality Not available.
Flu Activity Not available.
METAR WSSS 241330Z 08005KT 9999 FEW020 BKN300 28/24 Q1011 NOSIG

More Conditions Fewer Conditions

Pressure 29.86 in
Visibility 6.2 miles
Clouds Few 2000 ft
Mostly Cloudy 30000 ft
Heat Index 90 °F
Dew Point 75 °F
Humidity 79%
Rainfall 0.00 in
Snow Depth Not available.
UV 0 out of 12
Pollen Not available.
Air Quality Not available.
Flu Activity Not available.
METAR WSSS 241330Z 08005KT 9999 FEW020 BKN300 28/24 Q1011 NOSIG

More Conditions Fewer Conditions

10-Day Weather Forecast

Almanac

Astronomy

Oct. 24, 2014 Rise Set
Actual Time 6:46 AM SGT 6:50 PM SGT
Civil Twilight 6:24 AM SGT 7:11 PM SGT
Nautical Twilight 6:00 AM SGT 7:36 PM SGT
Astronomical Twilight 5:35 AM SGT 8:00 PM SGT
Moon 6:53 AM SGT 7:13 PM SGT
Length of Visible Light 12h 46m
Length of Day
12h 04m
Tomorrow will be 0m 5s shorter.
New Moon, 0% of the Moon is Illuminated
Today
New Moon
Oct 30
First Quarter
Nov 6
Full
Nov 14
Last Quarter
Nov 22
New

Yesterday's Extremes

Country Highs Country Lows

Community

WunderPhotos

Upload Photos

1,764,550 photos uploaded!

WunderBlogs® & News

Nearby

Snow Depth

Not available.

Earthquake Activity

City Distance Mag. Time & Date
No recent earthquake activity has been reported nearby.
Minimum magnitude displayed is 2.5.

Coastal Water Temperatures

Place Temperature
No Stations Reporting

Nearby Weather Stations